Time;durP1;ratioP1;P1;durP2;ratioP2;P2;SDS_P1;SDS_P2;PMS_P1;PMS_P2;Temp;Humidity;BMP_temperature;BMP_pressure;BME280_temperature;BME280_humidity;BME280_pressure;Samples;Min_cycle;Max_cycle;Signal;HPM_P1;HPM_P2
2022/06/15 00:01:52;;;;;;;2.50;1.13;;;;;;;11.15;100.00;101470.66;5025823;28;20451;-83
2022/06/15 00:04:26;;;;;;;2.65;1.20;;;;;;;11.20;100.00;101473.41;5024957;28;20439;-82
2022/06/15 00:06:59;;;;;;;2.50;1.10;;;;;;;11.22;100.00;101479.41;5025565;28;20430;-83
2022/06/15 00:09:29;;;;;;;3.17;1.30;;;;;;;11.28;100.00;101474.81;5029793;28;20407;-83
2022/06/15 00:12:02;;;;;;;2.47;1.08;;;;;;;11.38;100.00;101463.97;5025989;28;20775;-83
2022/06/15 00:14:36;;;;;;;2.90;1.17;;;;;;;11.38;100.00;101483.84;5018083;28;21025;-84
2022/06/15 00:17:09;;;;;;;2.90;1.15;;;;;;;11.40;100.00;101483.59;5028524;28;20427;-83
2022/06/15 00:19:37;;;;;;;2.05;1.10;;;;;;;11.47;100.00;101483.34;5027072;28;20799;-83
2022/06/15 00:22:06;;;;;;;2.45;1.27;;;;;;;11.47;100.00;101480.63;5035120;28;20419;-84
2022/06/15 00:24:35;;;;;;;2.22;1.13;;;;;;;11.49;100.00;101476.53;5024370;28;20407;-83
2022/06/15 00:27:08;;;;;;;2.03;1.13;;;;;;;11.39;100.00;101471.88;5025525;28;20442;-82
2022/06/15 00:29:38;;;;;;;1.95;1.10;;;;;;;11.54;100.00;101473.00;5024856;28;20442;-84
2022/06/15 00:32:11;;;;;;;7.40;1.30;;;;;;;11.61;100.00;101480.94;5039264;28;20522;-83
2022/06/15 00:34:44;;;;;;;2.35;1.27;;;;;;;11.64;100.00;101481.25;5027069;28;20763;-83
2022/06/15 00:37:18;;;;;;;3.72;1.10;;;;;;;11.66;100.00;101473.59;5030731;28;20425;-83
2022/06/15 00:39:53;;;;;;;5.53;1.30;;;;;;;11.63;100.00;101474.13;5033795;28;20449;-83
2022/06/15 00:42:31;;;;;;;4.78;1.23;;;;;;;11.66;100.00;101480.97;5025242;28;20426;-83
2022/06/15 00:44:59;;;;;;;5.13;1.30;;;;;;;11.51;100.00;101471.63;5028347;28;21045;-82
2022/06/15 00:47:31;;;;;;;3.28;1.33;;;;;;;11.65;100.00;101479.31;5022831;28;20423;-83
2022/06/15 00:50:10;;;;;;;4.30;1.20;;;;;;;11.65;100.00;101485.59;5028229;28;20427;-83
2022/06/15 00:52:50;;;;;;;3.00;1.17;;;;;;;11.66;100.00;101483.69;5028750;28;20415;-83
2022/06/15 00:55:28;;;;;;;2.25;1.23;;;;;;;11.54;100.00;101483.91;5028472;28;20438;-82
2022/06/15 00:57:57;;;;;;;3.37;1.20;;;;;;;11.49;100.00;101490.16;5024697;28;20456;-83
2022/06/15 01:00:31;;;;;;;2.97;1.20;;;;;;;11.38;100.00;101481.13;5024145;28;20954;-82
2022/06/15 01:03:06;;;;;;;2.10;1.00;;;;;;;11.46;100.00;101471.63;5024793;28;20419;-83
2022/06/15 01:05:49;;;;;;;2.35;1.10;;;;;;;11.55;100.00;101482.84;5019879;28;20420;-82
2022/06/15 01:08:33;;;;;;;2.70;1.23;;;;;;;11.61;100.00;101483.66;5024490;28;20430;-83
2022/06/15 01:11:23;;;;;;;2.13;0.98;;;;;;;11.54;100.00;101478.47;5031283;28;20430;-83
2022/06/15 01:14:18;;;;;;;2.53;1.20;;;;;;;11.42;100.00;101465.06;5021529;28;21024;-83
2022/06/15 01:16:54;;;;;;;3.10;1.10;;;;;;;11.41;100.00;101474.31;5024552;28;20427;-83
2022/06/15 01:20:06;;;;;;;2.78;1.10;;;;;;;11.53;100.00;101472.19;5025466;28;20427;-83
2022/06/15 01:22:59;;;;;;;3.90;1.30;;;;;;;11.56;100.00;101474.38;4945862;29;20794;-83
2022/06/15 01:25:39;;;;;;;1.85;1.10;;;;;;;11.50;100.00;101472.75;5020107;28;20784;-82
2022/06/15 01:28:43;;;;;;;2.45;1.00;;;;;;;11.51;100.00;101468.09;5023548;28;20780;-83
2022/06/15 01:31:28;;;;;;;2.42;1.05;;;;;;;11.50;100.00;101478.19;4960895;28;21015;-83
2022/06/15 01:34:11;;;;;;;3.33;1.20;;;;;;;11.47;100.00;101484.16;5021914;28;20443;-83
2022/06/15 01:36:45;;;;;;;2.72;1.20;;;;;;;11.44;100.00;101472.97;5025947;28;20430;-83
2022/06/15 01:39:23;;;;;;;3.63;1.25;;;;;;;11.53;100.00;101482.25;5023711;28;20435;-83
2022/06/15 01:42:03;;;;;;;2.20;1.00;;;;;;;11.51;100.00;101479.00;5023806;28;21068;-83
2022/06/15 01:44:40;;;;;;;3.25;1.23;;;;;;;11.55;100.00;101480.09;5021721;28;20423;-83
2022/06/15 01:47:16;;;;;;;3.28;1.23;;;;;;;11.56;100.00;101473.56;5026087;28;20426;-83
2022/06/15 01:49:54;;;;;;;1.65;1.00;;;;;;;11.50;100.00;101463.72;5029612;28;20413;-82
2022/06/15 01:52:34;;;;;;;3.03;1.30;;;;;;;11.57;100.00;101477.91;5023310;28;20978;-82
2022/06/15 01:55:12;;;;;;;3.60;1.20;;;;;;;11.54;100.00;101470.28;5022580;28;20434;-83
2022/06/15 01:57:49;;;;;;;4.00;1.45;;;;;;;11.53;100.00;101474.09;5022651;28;20441;-83
2022/06/15 02:00:21;;;;;;;2.47;1.30;;;;;;;11.49;100.00;101479.28;5022599;28;20435;-83
2022/06/15 02:03:05;;;;;;;3.33;1.10;;;;;;;11.43;100.00;101469.41;5020566;28;20434;-83
2022/06/15 02:05:45;;;;;;;2.88;1.35;;;;;;;11.39;100.00;101474.59;5037348;28;20432;-83
2022/06/15 02:08:28;;;;;;;2.80;1.33;;;;;;;11.45;100.00;101464.53;5025139;28;20434;-83
2022/06/15 02:11:06;;;;;;;2.27;1.20;;;;;;;11.42;100.00;101450.59;5018709;28;20426;-84
2022/06/15 02:13:42;;;;;;;3.38;1.30;;;;;;;11.36;100.00;101469.66;5027952;28;20428;-83
2022/06/15 02:16:25;;;;;;;3.38;1.40;;;;;;;11.48;100.00;101464.00;5022903;28;20431;-83
2022/06/15 02:18:59;;;;;;;3.67;1.40;;;;;;;11.51;100.00;101455.28;5023791;28;20427;-82
2022/06/15 02:21:35;;;;;;;1.93;1.20;;;;;;;11.39;100.00;101463.69;5024570;28;20434;-82
2022/06/15 02:24:12;;;;;;;2.58;1.20;;;;;;;11.48;100.00;101465.91;5023994;28;21147;-83
2022/06/15 02:26:46;;;;;;;3.28;1.30;;;;;;;11.54;100.00;101465.63;5023171;28;20429;-84
2022/06/15 02:29:17;;;;;;;3.63;1.30;;;;;;;11.55;100.00;101458.28;5021620;28;21182;-83
2022/06/15 02:31:55;;;;;;;2.47;1.25;;;;;;;11.55;100.00;101467.28;5020842;28;20423;-84
2022/06/15 02:34:30;;;;;;;2.40;1.20;;;;;;;11.51;100.00;101466.19;5023672;28;20435;-84
2022/06/15 02:37:05;;;;;;;3.38;1.40;;;;;;;11.54;100.00;101468.38;5018761;28;20966;-83
2022/06/15 02:39:39;;;;;;;4.47;1.42;;;;;;;11.46;100.00;101444.38;5017828;28;20426;-84
2022/06/15 02:42:27;;;;;;;2.90;1.27;;;;;;;11.39;100.00;101451.94;5025173;28;20419;-84
2022/06/15 02:45:10;;;;;;;2.22;1.27;;;;;;;11.33;100.00;101459.28;5021560;28;20773;-83
2022/06/15 02:47:45;;;;;;;3.17;1.33;;;;;;;11.37;100.00;101457.69;5024025;28;20415;-83
2022/06/15 02:50:22;;;;;;;3.50;1.40;;;;;;;11.39;100.00;101462.84;5033634;28;20421;-83
2022/06/15 02:53:00;;;;;;;2.63;1.45;;;;;;;11.36;100.00;101458.75;5024154;28;20435;-83
2022/06/15 02:55:35;;;;;;;3.10;1.30;;;;;;;11.37;100.00;101449.50;5023639;28;20910;-84
2022/06/15 02:58:14;;;;;;;4.97;1.57;;;;;;;11.41;100.00;101455.25;5024467;28;20423;-84
2022/06/15 03:00:51;;;;;;;3.55;1.50;;;;;;;11.38;100.00;101464.78;5019733;28;20431;-84
2022/06/15 03:03:25;;;;;;;3.03;1.33;;;;;;;11.44;100.00;101456.63;5022792;28;20442;-83
2022/06/15 03:06:08;;;;;;;2.72;1.48;;;;;;;11.46;100.00;101449.81;5023832;28;20908;-83
2022/06/15 03:08:43;;;;;;;2.53;1.30;;;;;;;11.48;100.00;101449.56;5009076;28;20448;-83
2022/06/15 03:11:24;;;;;;;2.70;1.30;;;;;;;11.43;100.00;101453.06;5024228;28;21050;-83
2022/06/15 03:14:04;;;;;;;2.77;1.47;;;;;;;11.30;100.00;101445.41;5011811;28;20431;-83
2022/06/15 03:16:38;;;;;;;2.80;1.30;;;;;;;11.33;100.00;101442.13;5033637;28;20426;-83
2022/06/15 03:19:07;;;;;;;2.42;1.38;;;;;;;11.41;100.00;101457.97;5018092;28;20428;-84
2022/06/15 03:21:36;;;;;;;3.30;1.20;;;;;;;11.50;100.00;101459.09;5016585;28;20792;-83
2022/06/15 03:24:10;;;;;;;4.55;1.60;;;;;;;11.39;100.00;101457.41;5022300;28;20749;-83
2022/06/15 03:26:43;;;;;;;2.40;1.20;;;;;;;11.47;100.00;101469.72;5020367;28;20423;-83
2022/06/15 03:29:20;;;;;;;3.20;1.33;;;;;;;11.39;100.00;101463.69;5022646;28;20862;-83
2022/06/15 03:32:00;;;;;;;2.35;1.35;;;;;;;11.54;100.00;101467.56;5024036;28;20430;-83
2022/06/15 03:34:31;;;;;;;4.30;1.40;;;;;;;11.58;100.00;101471.38;5028575;28;20773;-83
2022/06/15 03:37:06;;;;;;;3.00;1.33;;;;;;;11.63;100.00;101468.69;5019332;28;20441;-83
2022/06/15 03:39:34;;;;;;;2.40;1.20;;;;;;;11.66;100.00;101459.16;5028669;28;20427;-83
2022/06/15 03:42:11;;;;;;;2.40;1.15;;;;;;;11.68;100.00;101463.25;5027264;28;20422;-82
2022/06/15 03:44:45;;;;;;;4.45;1.55;;;;;;;11.73;100.00;101457.78;5034859;28;20417;-83
2022/06/15 03:47:23;;;;;;;3.63;1.38;;;;;;;11.69;100.00;101450.44;5025144;28;20427;-84
2022/06/15 03:49:56;;;;;;;2.83;1.30;;;;;;;11.72;100.00;101442.56;5029978;28;20431;-83
2022/06/15 03:52:31;;;;;;;4.97;1.58;;;;;;;11.82;100.00;101449.94;5034606;28;20450;-83
2022/06/15 03:55:05;;;;;;;2.33;1.17;;;;;;;11.86;100.00;101451.03;5026926;28;20418;-84
2022/06/15 03:57:39;;;;;;;4.90;1.30;;;;;;;11.93;100.00;101458.94;5033250;28;20919;-83
2022/06/15 04:00:19;;;;;;;4.22;1.33;;;;;;;11.92;100.00;101465.50;5036622;28;20436;-83
2022/06/15 04:02:51;;;;;;;3.55;1.30;;;;;;;11.96;100.00;101457.59;5022776;28;20430;-83
2022/06/15 04:05:49;;;;;;;3.22;1.20;;;;;;;11.82;100.00;101458.13;5025351;28;20783;-83
2022/06/15 04:08:37;;;;;;;4.05;1.33;;;;;;;11.85;100.00;101449.38;5033572;28;20431;-83
2022/06/15 04:14:24;;;;;;;4.10;1.40;;;;;;;11.80;100.00;101457.53;5035401;28;20419;-83
2022/06/15 04:17:04;;;;;;;3.63;1.50;;;;;;;11.80;100.00;101454.81;5020795;28;20739;-82
2022/06/15 04:22:53;;;;;;;2.50;1.30;;;;;;;11.98;100.00;101450.00;5022733;28;20423;-83
2022/06/15 04:25:29;;;;;;;5.13;1.55;;;;;;;12.06;100.00;101449.47;5025710;28;20434;-84
2022/06/15 04:28:00;;;;;;;3.45;1.50;;;;;;;12.07;100.00;101454.63;5025629;28;20434;-83
2022/06/15 04:30:28;;;;;;;2.97;1.30;;;;;;;12.03;100.00;101452.72;5023426;28;20439;-83
2022/06/15 04:33:01;;;;;;;2.50;1.35;;;;;;;12.19;100.00;101445.38;5020387;28;20434;-83
2022/06/15 04:35:35;;;;;;;4.93;1.60;;;;;;;12.32;100.00;101453.03;5030337;28;21248;-83
2022/06/15 04:38:13;;;;;;;4.40;1.40;;;;;;;12.44;100.00;101458.19;5021844;28;20465;-82
2022/06/15 04:40:57;;;;;;;3.20;1.42;;;;;;;12.46;100.00;101447.03;5026767;28;20433;-83
2022/06/15 04:43:30;;;;;;;2.40;1.30;;;;;;;12.52;100.00;101459.56;5039334;28;20521;-83
2022/06/15 04:46:07;;;;;;;3.65;1.48;;;;;;;12.55;100.00;101462.56;5023535;28;20437;-82
2022/06/15 04:48:36;;;;;;;3.35;1.77;;;;;;;12.39;100.00;101463.69;5032570;28;20425;-82
2022/06/15 04:51:12;;;;;;;5.28;1.60;;;;;;;12.37;100.00;101452.19;5026168;28;20419;-82
2022/06/15 04:53:45;;;;;;;2.70;1.50;;;;;;;12.49;100.00;101452.75;5025705;28;20501;-82
2022/06/15 04:56:17;;;;;;;2.92;1.50;;;;;;;12.65;100.00;101461.75;5025184;28;20430;-82
2022/06/15 04:58:47;;;;;;;4.45;1.73;;;;;;;12.60;100.00;101453.56;5024420;28;20427;-83
2022/06/15 05:01:22;;;;;;;3.80;1.60;;;;;;;12.62;100.00;101448.63;5022197;28;20990;-83
2022/06/15 05:03:56;;;;;;;2.53;1.47;;;;;;;12.53;100.00;101445.63;5024651;28;20430;-83
2022/06/15 05:06:35;;;;;;;4.93;1.80;;;;;;;12.77;100.00;101466.91;5027194;28;20422;-83
2022/06/15 05:09:12;;;;;;;4.90;1.60;;;;;;;12.78;100.00;101457.63;5028434;28;20418;-82
2022/06/15 05:11:50;;;;;;;3.72;1.50;;;;;;;12.85;100.00;101454.63;5023368;28;20430;-83
2022/06/15 05:14:24;;;;;;;3.05;1.65;;;;;;;12.84;100.00;101461.16;5029021;28;20415;-83
2022/06/15 05:16:57;;;;;;;3.95;1.60;;;;;;;12.87;100.00;101458.72;5019151;28;20436;-83
2022/06/15 05:19:32;;;;;;;5.38;1.70;;;;;;;12.72;100.00;101458.75;5026435;28;20429;-82
2022/06/15 05:22:05;;;;;;;3.97;1.67;;;;;;;12.92;100.00;101461.41;5024207;28;20434;-82
2022/06/15 05:24:34;;;;;;;2.90;1.55;;;;;;;13.51;100.00;101467.28;5018350;28;20431;-81
2022/06/15 05:27:11;;;;;;;1.80;1.30;;;;;;;13.19;100.00;101459.47;5023233;28;20435;-82
2022/06/15 05:29:40;;;;;;;3.85;1.40;;;;;;;13.07;100.00;101459.75;5024735;28;21164;-81
2022/06/15 05:32:18;;;;;;;3.08;1.30;;;;;;;12.95;100.00;101468.25;5030924;28;20795;-82
2022/06/15 05:34:55;;;;;;;4.88;1.50;;;;;;;12.97;100.00;101465.22;5024371;28;20837;-83
2022/06/15 05:37:31;;;;;;;4.57;1.50;;;;;;;13.04;100.00;101458.41;5024470;28;20863;-82
2022/06/15 05:40:06;;;;;;;3.97;1.80;;;;;;;13.22;100.00;101456.97;5022863;28;20426;-83
2022/06/15 05:42:43;;;;;;;3.00;1.60;;;;;;;13.38;100.00;101465.13;5022227;28;20439;-83
2022/06/15 05:45:17;;;;;;;4.05;1.60;;;;;;;13.51;100.00;101475.47;5018871;28;20831;-82
2022/06/15 05:47:52;;;;;;;3.97;1.75;;;;;;;13.55;100.00;101468.34;5016712;28;20446;-82
2022/06/15 05:50:33;;;;;;;3.80;1.60;;;;;;;13.78;100.00;101469.63;5017147;28;20439;-82
2022/06/15 05:53:15;;;;;;;2.83;1.40;;;;;;;13.89;100.00;101469.53;5028572;28;20432;-83
2022/06/15 05:55:48;;;;;;;4.22;1.60;;;;;;;14.01;100.00;101458.25;5020776;28;20442;-83
2022/06/15 05:58:23;;;;;;;4.37;1.63;;;;;;;14.17;100.00;101468.00;5020295;28;20446;-82
2022/06/15 06:00:51;;;;;;;3.83;1.70;;;;;;;14.27;100.00;101459.69;5023343;28;20434;-83
2022/06/15 06:03:24;;;;;;;3.10;1.60;;;;;;;14.38;100.00;101470.59;5017832;28;21200;-83
2022/06/15 06:05:57;;;;;;;4.53;1.38;;;;;;;14.63;100.00;101470.38;5033848;28;20432;-82
2022/06/15 06:08:31;;;;;;;4.23;1.70;;;;;;;14.73;100.00;101465.91;5027296;28;20460;-83
2022/06/15 06:10:59;;;;;;;5.10;1.70;;;;;;;14.77;100.00;101462.31;5019432;28;20434;-82
2022/06/15 06:13:34;;;;;;;4.82;1.60;;;;;;;14.79;100.00;101462.03;5021386;28;20969;-84
2022/06/15 06:16:07;;;;;;;4.47;1.70;;;;;;;14.94;100.00;101461.88;5022987;28;20508;-83
2022/06/15 06:18:41;;;;;;;5.53;1.80;;;;;;;15.10;100.00;101456.22;5020913;28;20439;-82
2022/06/15 06:21:15;;;;;;;4.20;1.48;;;;;;;15.22;100.00;101451.16;5032525;28;20433;-83
2022/06/15 06:23:49;;;;;;;5.20;1.70;;;;;;;15.27;100.00;101453.00;5019891;28;20477;-83
2022/06/15 06:26:26;;;;;;;2.80;1.40;;;;;;;15.27;100.00;101453.84;5018166;28;20421;-83
2022/06/15 06:29:01;;;;;;;3.17;1.23;;;;;;;15.33;100.00;101456.50;5022857;28;20433;-82
2022/06/15 06:31:34;;;;;;;2.95;1.10;;;;;;;15.30;100.00;101453.25;5016557;28;20490;-82
2022/06/15 06:34:02;;;;;;;3.40;1.40;;;;;;;15.52;100.00;101459.28;5021159;28;20427;-82
2022/06/15 06:36:39;;;;;;;2.80;1.40;;;;;;;15.86;100.00;101461.06;5011587;28;20435;-83
2022/06/15 06:39:15;;;;;;;4.60;1.50;;;;;;;15.80;100.00;101463.06;5015958;28;20431;-83
2022/06/15 06:41:48;;;;;;;2.90;1.17;;;;;;;15.92;100.00;101463.44;5016002;28;21046;-83
2022/06/15 06:44:18;;;;;;;2.42;1.00;;;;;;;15.98;100.00;101458.69;5022817;28;20431;-82
2022/06/15 06:46:53;;;;;;;3.35;1.10;;;;;;;15.98;100.00;101454.00;5016810;28;20435;-83
2022/06/15 06:49:26;;;;;;;1.88;1.10;;;;;;;16.01;100.00;101441.63;5019847;28;20434;-84
2022/06/15 06:51:59;;;;;;;1.63;0.95;;;;;;;15.95;100.00;101442.78;5010709;28;20431;-85
2022/06/15 06:54:28;;;;;;;2.42;1.00;;;;;;;15.98;100.00;101454.00;5020397;28;20439;-82
2022/06/15 06:57:01;;;;;;;2.22;0.80;;;;;;;16.03;100.00;101453.09;5022046;28;20769;-86
2022/06/15 06:59:31;;;;;;;2.58;0.95;;;;;;;16.04;100.00;101460.22;5027105;28;20445;-86
2022/06/15 07:01:59;;;;;;;4.47;1.50;;;;;;;16.03;100.00;101455.84;5023748;28;20796;-85
2022/06/15 07:04:27;;;;;;;2.90;1.30;;;;;;;16.03;100.00;101455.84;5042067;28;20435;-84
2022/06/15 07:07:00;;;;;;;2.80;1.17;;;;;;;16.20;100.00;101465.47;5030093;28;20426;-86
2022/06/15 07:09:34;;;;;;;4.13;1.27;;;;;;;16.16;100.00;101465.28;5023428;28;21074;-85
2022/06/15 07:12:08;;;;;;;2.38;1.20;;;;;;;16.08;100.00;101436.56;5024006;28;20432;-85
2022/06/15 07:14:37;;;;;;;2.22;1.20;;;;;;;16.20;100.00;101468.22;5033875;28;21581;-84
2022/06/15 07:17:11;;;;;;;3.15;1.23;;;;;;;16.32;100.00;101471.31;5023350;28;20423;-82
2022/06/15 07:19:44;;;;;;;3.60;1.20;;;;;;;16.53;100.00;101471.00;5016006;28;22207;-85
2022/06/15 07:22:17;;;;;;;2.08;0.82;;;;;;;16.54;100.00;101465.19;5018303;28;20439;-87
2022/06/15 07:24:51;;;;;;;2.80;1.05;;;;;;;16.68;100.00;101467.97;5018640;28;20434;-86
2022/06/15 07:27:25;;;;;;;2.58;0.90;;;;;;;16.49;100.00;101466.09;5006431;28;20431;-86
2022/06/15 07:29:59;;;;;;;3.35;0.80;;;;;;;16.42;100.00;101423.63;5007255;28;20434;-88
2022/06/15 07:32:28;;;;;;;5.05;1.02;;;;;;;16.50;100.00;101469.66;5014711;28;20439;-86
2022/06/15 07:35:03;;;;;;;3.80;1.00;;;;;;;16.65;100.00;101463.91;5015550;28;20446;-85
2022/06/15 07:37:36;;;;;;;4.88;2.42;;;;;;;16.54;100.00;101461.63;5010459;28;21894;-86
2022/06/15 07:40:06;;;;;;;2.08;0.90;;;;;;;16.66;100.00;101470.22;5010502;28;22049;-89
2022/06/15 07:42:34;;;;;;;2.00;0.70;;;;;;;16.65;100.00;101474.91;5007905;28;20431;-87
2022/06/15 07:45:10;;;;;;;2.50;0.90;;;;;;;16.62;100.00;101469.19;5010671;28;21161;-85
2022/06/15 07:50:30;;;;;;;3.00;0.90;;;;;;;17.04;100.00;101452.78;5011171;28;21923;-86
2022/06/15 07:53:05;;;;;;;3.85;1.00;;;;;;;17.10;100.00;101463.38;5011389;28;20427;-85
2022/06/15 07:55:42;;;;;;;2.33;0.90;;;;;;;16.71;100.00;101444.56;5006982;28;20859;-87
2022/06/15 07:58:11;;;;;;;2.88;1.10;;;;;;;17.22;100.00;101456.56;5011235;28;20423;-86
2022/06/15 08:00:43;;;;;;;2.38;0.90;;;;;;;17.42;100.00;101439.63;5014871;28;20477;-85
2022/06/15 08:03:17;;;;;;;2.95;1.00;;;;;;;17.56;100.00;101449.81;5008528;28;20438;-85
2022/06/15 08:05:48;;;;;;;3.75;0.93;;;;;;;17.48;100.00;101438.41;5005667;28;20434;-87
2022/06/15 08:08:20;;;;;;;2.47;0.90;;;;;;;17.55;100.00;101451.72;5005203;28;20451;-87
2022/06/15 08:10:48;;;;;;;1.92;0.90;;;;;;;17.69;100.00;101432.47;5006220;28;20430;-85
2022/06/15 08:13:22;;;;;;;2.63;1.00;;;;;;;17.71;100.00;101451.41;5009124;28;20431;-81
2022/06/15 08:15:52;;;;;;;1.83;0.90;;;;;;;17.67;100.00;101448.47;5011976;28;20435;-85
2022/06/15 08:18:26;;;;;;;3.97;1.05;;;;;;;17.83;100.00;101447.00;5013185;28;20430;-84
2022/06/15 08:21:03;;;;;;;2.45;1.00;;;;;;;17.59;100.00;101436.22;4988700;28;20434;-85
2022/06/15 08:23:42;;;;;;;3.38;1.13;;;;;;;17.90;100.00;101442.97;5007743;28;21486;-85
2022/06/15 08:26:18;;;;;;;1.60;0.87;;;;;;;18.10;100.00;101453.53;5010628;28;21108;-86
2022/06/15 08:28:51;;;;;;;3.42;0.93;;;;;;;18.31;100.00;101448.38;5006860;28;20435;-86
2022/06/15 08:31:22;;;;;;;4.18;1.48;;;;;;;18.65;100.00;101455.22;5009195;28;20427;-86
2022/06/15 08:33:55;;;;;;;3.05;1.10;;;;;;;18.68;98.49;101449.09;5012561;28;21076;-86
2022/06/15 08:36:28;;;;;;;3.50;1.10;;;;;;;18.73;100.00;101455.59;5009229;28;20431;-85
2022/06/15 08:38:57;;;;;;;2.60;1.10;;;;;;;18.52;90.61;101450.63;5007415;28;21299;-90
2022/06/15 08:41:35;;;;;;;3.28;0.90;;;;;;;18.00;99.78;101456.56;5006614;28;21167;-83
2022/06/15 08:44:15;;;;;;;2.47;0.93;;;;;;;17.73;100.00;101438.97;5005949;28;20435;-82
2022/06/15 08:46:55;;;;;;;3.00;1.10;;;;;;;17.68;99.09;101426.13;5023175;28;20441;-85
2022/06/15 08:49:41;;;;;;;3.25;1.10;;;;;;;18.08;100.00;101427.47;5005298;28;20442;-86
2022/06/15 08:52:17;;;;;;;2.63;0.98;;;;;;;18.28;89.93;101439.91;5010689;28;20429;-89
2022/06/15 08:54:54;;;;;;;2.58;0.93;;;;;;;17.90;100.00;101431.97;5012266;28;20442;-87
2022/06/15 08:57:32;;;;;;;1.95;1.00;;;;;;;17.90;99.23;101430.03;5010455;28;20980;-86
2022/06/15 09:00:05;;;;;;;2.88;1.10;;;;;;;17.70;89.78;101431.31;5011237;28;20442;-85
2022/06/15 09:02:44;;;;;;;2.60;1.17;;;;;;;17.81;94.23;101440.16;5007780;28;20427;-87
2022/06/15 09:05:22;;;;;;;1.50;0.90;;;;;;;17.70;100.00;101441.53;5006735;28;20439;-84
2022/06/15 09:08:08;;;;;;;3.00;1.10;;;;;;;17.76;98.69;101437.50;5003563;28;20443;-86
2022/06/15 09:10:45;;;;;;;1.55;0.95;;;;;;;17.90;95.63;101441.06;5004673;28;20442;-85
2022/06/15 09:13:29;;;;;;;2.80;1.00;;;;;;;18.21;96.06;101445.84;5003885;28;20438;-83
2022/06/15 09:16:10;;;;;;;2.25;1.10;;;;;;;18.47;92.23;101439.72;5002063;28;20434;-86
2022/06/15 09:18:49;;;;;;;3.15;1.10;;;;;;;18.48;84.41;101442.16;5001951;28;20997;-87
2022/06/15 09:21:23;;;;;;;2.92;1.15;;;;;;;18.53;75.35;101446.72;4986723;28;20454;-84
2022/06/15 09:24:00;;;;;;;3.88;1.20;;;;;;;18.70;80.44;101437.72;5006961;28;20422;-85
2022/06/15 09:26:38;;;;;;;1.85;1.10;;;;;;;19.19;89.32;101435.03;5006969;28;20427;-84
2022/06/15 09:29:18;;;;;;;3.15;1.13;;;;;;;19.16;74.20;101422.69;5001499;28;21121;-88
2022/06/15 09:31:50;;;;;;;3.70;1.23;;;;;;;18.95;68.93;101440.97;5006011;28;20439;-87
2022/06/15 09:34:24;;;;;;;1.77;1.10;;;;;;;19.41;85.42;101436.06;4999913;28;20450;-85
2022/06/15 09:36:58;;;;;;;1.83;1.10;;;;;;;19.17;75.05;101437.31;5006606;28;20433;-84
2022/06/15 09:39:32;;;;;;;2.95;1.13;;;;;;;19.20;74.49;101433.91;5004052;28;20844;-86
2022/06/15 09:42:14;;;;;;;2.72;1.13;;;;;;;19.20;82.62;101436.66;5003387;28;20426;-86
2022/06/15 09:44:51;;;;;;;3.33;1.02;;;;;;;19.53;80.59;101414.16;5001090;28;20434;-85
2022/06/15 09:47:35;;;;;;;1.85;1.00;;;;;;;19.72;70.41;101427.66;5003694;28;20431;-84
2022/06/15 09:50:19;;;;;;;3.30;1.20;;;;;;;19.80;73.52;101423.31;5006969;28;20438;-89
2022/06/15 09:52:58;;;;;;;1.67;1.00;;;;;;;19.98;70.97;101408.38;5013241;28;20431;-89
2022/06/15 09:55:37;;;;;;;3.20;1.33;;;;;;;19.62;61.63;101405.88;5013811;28;21106;-87
2022/06/15 09:58:07;;;;;;;2.40;1.20;;;;;;;19.34;70.81;101395.94;5012462;28;21009;-89
2022/06/15 10:00:37;;;;;;;3.17;1.10;;;;;;;19.36;77.56;101401.13;5014717;28;20446;-89
2022/06/15 10:03:17;;;;;;;2.40;1.30;;;;;;;19.36;81.97;101410.25;5007709;28;20489;-88
2022/06/15 10:05:50;;;;;;;2.42;1.20;;;;;;;18.64;79.99;101373.66;5007892;28;20423;-88
2022/06/15 10:08:18;;;;;;;1.73;1.00;;;;;;;18.70;84.55;101412.94;5008839;28;20473;-89
2022/06/15 10:10:55;;;;;;;3.38;1.10;;;;;;;18.39;87.62;101421.19;5016361;28;21066;-89
2022/06/15 10:13:32;;;;;;;2.55;1.13;;;;;;;18.65;86.45;101413.06;5007202;28;20427;-89
2022/06/15 10:16:03;;;;;;;2.97;1.50;;;;;;;19.04;80.47;101403.16;5009710;28;20442;-87
2022/06/15 10:18:36;;;;;;;3.25;1.33;;;;;;;19.07;71.41;101407.25;5011263;28;20446;-90
2022/06/15 10:21:09;;;;;;;3.27;1.20;;;;;;;19.69;79.39;101400.69;4996069;28;20431;-88
2022/06/15 10:23:54;;;;;;;3.40;1.30;;;;;;;19.92;73.49;101403.31;5013341;28;20419;-87
2022/06/15 10:26:35;;;;;;;2.70;1.10;;;;;;;19.62;71.27;101395.63;5008846;28;20776;-89
2022/06/15 10:29:28;;;;;;;2.60;1.20;;;;;;;19.77;68.28;101393.56;5011254;28;20433;-87
2022/06/15 10:32:08;;;;;;;2.83;1.48;;;;;;;19.88;91.67;101392.09;5010598;28;20453;-88
2022/06/15 10:35:04;;;;;;;3.47;1.27;;;;;;;19.32;73.84;101389.94;5007947;28;20439;-90
2022/06/15 10:37:44;;;;;;;2.80;1.08;;;;;;;19.12;74.93;101385.03;5005585;28;20650;-88
2022/06/15 10:40:23;;;;;;;2.05;1.20;;;;;;;18.84;75.24;101396.28;5010975;28;20426;-88
2022/06/15 10:43:02;;;;;;;2.50;1.20;;;;;;;18.97;82.47;101406.38;5009851;28;20435;-87
2022/06/15 10:45:36;;;;;;;3.88;1.30;;;;;;;18.69;78.97;101361.66;5010652;28;20892;-90
2022/06/15 10:48:07;;;;;;;2.05;1.10;;;;;;;18.76;81.45;101402.56;5012949;28;20622;-89
2022/06/15 10:50:45;;;;;;;2.08;1.00;;;;;;;18.83;84.28;101383.59;5020647;28;20435;-88
2022/06/15 10:53:32;;;;;;;2.97;1.38;;;;;;;18.97;88.38;101392.59;5010869;28;20799;-89
2022/06/15 11:04:33;;;;;;;1.75;1.00;;;;;;;19.47;66.42;101363.00;5015469;28;20424;-89
2022/06/15 11:07:06;;;;;;;2.75;1.30;;;;;;;20.12;76.56;101369.50;5008789;28;20970;-90
2022/06/15 11:09:39;;;;;;;2.17;1.13;;;;;;;20.61;77.96;101368.38;5009713;28;20523;-90
2022/06/15 11:12:22;;;;;;;2.65;1.10;;;;;;;20.35;72.73;101355.44;5008945;28;20434;-89
2022/06/15 11:14:55;;;;;;;3.75;1.27;;;;;;;20.26;57.50;101349.13;5011780;28;20522;-89
2022/06/15 11:20:31;;;;;;;1.93;1.13;;;;;;;20.42;67.51;101366.81;5002001;28;20427;-92
2022/06/15 11:23:10;;;;;;;2.58;1.20;;;;;;;20.62;64.43;101358.91;5015017;28;20461;-91
2022/06/15 11:25:47;;;;;;;3.25;1.30;;;;;;;20.47;64.63;101338.19;5014850;28;20438;-91
2022/06/15 11:28:25;;;;;;;2.00;1.10;;;;;;;21.10;72.45;101346.69;5010191;28;20903;-89
2022/06/15 11:30:59;;;;;;;2.45;1.10;;;;;;;21.07;67.76;101339.03;5016474;28;20439;-89
2022/06/15 11:33:40;;;;;;;2.17;1.17;;;;;;;21.33;72.46;101336.06;5009424;28;20729;-88
2022/06/15 11:36:17;;;;;;;3.35;1.30;;;;;;;21.25;54.75;101334.19;5013171;28;20423;-88
2022/06/15 11:38:55;;;;;;;3.42;1.30;;;;;;;21.22;60.81;101324.59;5012457;28;20442;-89
2022/06/15 11:41:29;;;;;;;2.75;1.20;;;;;;;20.99;65.09;101314.97;5019832;28;20430;-87
2022/06/15 11:44:00;;;;;;;2.38;0.98;;;;;;;20.82;77.95;101338.84;5009487;28;20536;-88
2022/06/15 11:46:51;;;;;;;3.65;1.13;;;;;;;20.40;79.27;101341.47;5006481;28;20442;-87
2022/06/15 11:49:31;;;;;;;2.97;1.20;;;;;;;20.38;83.44;101333.50;5011589;28;20434;-84
2022/06/15 11:52:20;;;;;;;3.25;1.25;;;;;;;20.58;70.19;101325.59;5009866;28;20959;-89
2022/06/15 11:55:17;;;;;;;3.53;1.20;;;;;;;20.81;70.26;101330.88;5015855;28;20434;-87
2022/06/15 11:58:03;;;;;;;2.33;1.20;;;;;;;20.61;65.21;101313.88;5010649;28;20430;-88
2022/06/15 12:00:37;;;;;;;3.33;1.00;;;;;;;20.98;67.02;101316.94;5014082;28;20552;-89
2022/06/15 12:03:27;;;;;;;2.65;1.02;;;;;;;21.25;59.66;101317.56;5018022;28;20427;-88
2022/06/15 12:06:02;;;;;;;1.83;1.00;;;;;;;21.37;61.89;101312.09;5009494;28;20435;-87
2022/06/15 12:08:46;;;;;;;2.63;1.30;;;;;;;21.19;68.64;101313.41;5015434;28;20435;-87
2022/06/15 12:14:27;;;;;;;2.58;1.10;;;;;;;20.33;66.48;101321.81;5012100;28;20427;-84
2022/06/15 12:17:00;;;;;;;2.57;0.90;;;;;;;20.39;76.52;101324.03;5007736;28;20530;-86
2022/06/15 12:19:38;;;;;;;2.63;1.10;;;;;;;20.46;72.17;101320.75;4994847;28;20434;-88
2022/06/15 12:22:17;;;;;;;3.65;1.20;;;;;;;21.08;69.11;101314.94;5017037;28;21698;-88
2022/06/15 12:24:53;;;;;;;2.92;1.00;;;;;;;21.31;60.42;101307.94;5013435;28;20458;-87